Meteo Giornale » Osservazioni meteo Italia » Pisa-S Giusto

ore: 05:15 - Osservazioni Meteo Pisa-S Giusto
Lat. 43° 41' N Lon. 10° 23' E Alt. 2 metri s.l.m.

poco_nuvoloso Europe/Rome

4 °C

Poco Nuvoloso

Temp. 24 Ore

3 °C

15 °C

Sud-Est

9.3 Km/h

Dew point 3 °C

Umidità 93 %

Visibilità  10 Km

Il sole sorge alle ore 07:16

Il sole tramonta alle ore 16:51

Data e Ora Cielo e Fenomeni T °C DP °C Um. % Pres. hPa Vis. km Vento km/h
Oggi h: 05:15 poco_nuvoloso Poco Nuvoloso 4 3 93 1015 10 SE 9.3
Oggi h: 04:45 sereno Sereno 4 4 100 1015 10 N 5.5
Oggi h: 04:15 sereno Sereno 5 5 100 1015 10 N 5.5
Oggi h: 03:45 poco_nuvoloso Poco Nuvoloso 5 5 100 1015 10 N 5.5
Oggi h: 03:15 poco_nuvoloso Poco Nuvoloso 5 5 100 1016 10 N 3.7
Oggi h: 02:45 poco_nuvoloso Poco Nuvoloso 5 5 100 1016 10 SE 7.4
Oggi h: 02:15 poco_nuvoloso Poco Nuvoloso 6 5 93 1016 10 N 3.7
Oggi h: 01:45 nuvoloso Nuvoloso 5 5 100 1016 10 SE 7.4
Oggi h: 01:15 nuvoloso Nuvoloso 5 5 100 1016 10 SE 9.3
Oggi h: 00:45 nuvoloso Nuvoloso 5 5 100 1016 10 E/SE 7.4
Oggi h: 00:15 nuvoloso Nuvoloso 4 4 100 1017 10 N 5.5
Ieri h: 23:45 nuvoloso Nuvoloso 5 5 100 1017 10 E/SE 7.4
Ieri h: 23:15 poco_nuvoloso Poco Nuvoloso 5 5 100 1017 10 E/SE 11.1
Ieri h: 22:45 poco_nuvoloso Poco Nuvoloso 6 6 100 1017 10 N 3.7
Ieri h: 22:15 nebbia Nebbia a Strati 6 6 100 1017 10 N 3.7
Ieri h: 21:45 nebbia Nebbia a Strati 6 6 100 1017 10 N 5.5
Ieri h: 21:15 sereno Sereno 6 6 100 1017 10 N 3.7
Ieri h: 20:45 sereno Sereno 6 6 100 1017 10 SE 9.3
Ieri h: 20:15 sereno Sereno 7 6 93 1017 10 N 3.7
Ieri h: 19:45 sereno Sereno 8 6 87 1016 10 N 3.7
Ieri h: 19:15 sereno Sereno 9 7 87 1016 10 N 5.5
Ieri h: 18:45 sereno Sereno 10 7 81 1016 10 N 0
Ieri h: 18:15 sereno Sereno 10 7 81 1016 10 N 3.7
Ieri h: 17:15 sereno Sereno 12 7 71 1016 10 N 3.7
Ieri h: 16:45 sereno Sereno 13 6 62 1016 10 N 5.5
Ieri h: 16:15 sereno Sereno 14 6 58 1016 10 O/NO 11.1
Ieri h: 15:45 sereno Sereno 15 5 51 1016 10 O/NO 7.4
Ieri h: 15:15 sereno Sereno 15 5 51 1016 10 O 7.4
Ieri h: 14:45 sereno Sereno 15 4 47 1016 10 N 3.7
Ieri h: 14:15 sereno Sereno 15 4 47 1016 10 N 3.7
Ieri h: 13:45 sereno Sereno 15 5 51 1016 10 N 5.5
Ieri h: 13:15 sereno Sereno 15 4 47 1017 10 N 5.5
Ieri h: 12:45 sereno Sereno 15 5 51 1017 10 N 3.7
Ieri h: 12:15 sereno Sereno 14 5 54 1017 10 E/SE 9.3
Ieri h: 11:45 sereno Sereno 14 5 54 1017 10 E/SE 11.1
Ieri h: 11:15 sereno Sereno 13 5 58 1017 10 E/SE 14.8
Ieri h: 10:45 sereno Sereno 12 7 71 1017 10 E/SE 13
Ieri h: 10:15 sereno Sereno 10 7 81 1017 10 E/SE 13
Ieri h: 09:45 sereno Sereno 7 6 93 1017 10 SE 9.3
Ieri h: 09:15 sereno Sereno 6 6 100 1017 10 N 3.7
Ieri h: 08:45 sereno Sereno 5 5 100 1017 10 N 3.7
Ieri h: 08:15 sereno Sereno 4 4 100 1017 10 N 3.7
Ieri h: 07:45 sereno Sereno 3 3 100 1017 10 N 3.7
Ieri h: 07:15 sereno Sereno 3 3 100 1016 10 N 3.7
Ieri h: 06:45 sereno Sereno 4 4 100 1016 10 N 1.8
Ieri h: 06:15 sereno Sereno 3 3 100 1016 10 N 5.5
Ieri h: 05:45 sereno Sereno 4 4 100 1016 10 N 5.5